Time;durP1;ratioP1;P1;durP2;ratioP2;P2;SDS_P1;SDS_P2;PMS_P1;PMS_P2;Temp;Humidity;BMP_temperature;BMP_pressure;BME280_temperature;BME280_humidity;BME280_pressure;Samples;Min_cycle;Max_cycle;Signal;HPM_P1;HPM_P2
2020/12/20 07:21:56;;;;;;;125.05;24.48;;;3.00;86.80;;;;;;5192594;27;20482;-41
2020/12/20 07:24:31;;;;;;;170.15;27.40;;;3.00;88.00;;;;;;5171153;27;20091;-40
2020/12/20 07:27:05;;;;;;;180.07;29.85;;;3.00;88.70;;;;;;5175039;27;20087;-40
2020/12/20 07:29:36;;;;;;;170.20;31.15;;;3.10;89.20;;;;;;5175019;27;20324;-42
2020/12/20 07:32:04;;;;;;;240.93;33.40;;;3.20;89.80;;;;;;5173691;27;20031;-43
2020/12/20 07:34:30;;;;;;;174.38;32.33;;;3.40;89.90;;;;;;5173946;27;20022;-42
2020/12/20 07:36:56;;;;;;;193.55;30.90;;;3.50;90.00;;;;;;5174454;27;20022;-42
2020/12/20 07:39:23;;;;;;;99.95;29.73;;;3.60;90.00;;;;;;5174785;27;20018;-42
2020/12/20 07:41:48;;;;;;;177.40;29.80;;;3.80;90.00;;;;;;5175408;27;20133;-43
2020/12/20 07:44:14;;;;;;;97.10;25.52;;;3.90;89.80;;;;;;5174303;27;20483;-44
2020/12/20 07:46:40;;;;;;;106.38;25.92;;;4.00;89.50;;;;;;5174642;27;20054;-43
2020/12/20 07:49:11;;;;;;;138.32;26.90;;;4.20;89.40;;;;;;5174673;27;20050;-42
2020/12/20 07:51:38;;;;;;;75.85;23.52;;;4.30;89.00;;;;;;5154833;27;20076;-43
2020/12/20 07:54:14;;;;;;;114.45;29.58;;;4.30;88.50;;;;;;5153589;27;20015;-43
2020/12/20 07:56:48;;;;;;;128.50;26.42;;;4.40;88.00;;;;;;5162044;27;20423;-43
2020/12/20 07:59:16;;;;;;;160.25;27.60;;;4.50;87.50;;;;;;5174526;27;20018;-42
2020/12/20 08:01:45;;;;;;;117.72;25.92;;;4.50;87.10;;;;;;5175255;27;20384;-42
2020/12/20 08:04:19;;;;;;;248.30;33.15;;;4.50;86.90;;;;;;5173952;27;20075;-44
2020/12/20 08:06:46;;;;;;;131.13;27.27;;;4.60;86.80;;;;;;5174817;27;20037;-45
2020/12/20 08:09:13;;;;;;;205.55;30.88;;;4.60;86.80;;;;;;5174159;27;20038;-43
2020/12/20 08:11:40;;;;;;;149.20;27.85;;;4.60;86.70;;;;;;5175142;27;20083;-42
2020/12/20 08:14:10;;;;;;;162.43;28.25;;;4.60;86.70;;;;;;5173979;27;20030;-44
2020/12/20 08:16:38;;;;;;;167.93;32.13;;;4.60;86.40;;;;;;5175000;27;20075;-45
2020/12/20 08:19:27;;;;;;;90.35;26.27;;;4.60;86.30;;;;;;5173844;27;20066;-43
2020/12/20 08:22:05;;;;;;;277.25;34.72;;;4.60;86.40;;;;;;5154209;27;20042;-44
2020/12/20 08:24:36;;;;;;;208.07;37.35;;;4.70;86.50;;;;;;5170300;27;20075;-43
2020/12/20 08:27:18;;;;;;;157.85;31.67;;;4.70;86.50;;;;;;5173084;27;20030;-43
2020/12/20 08:29:50;;;;;;;155.55;31.10;;;4.70;86.30;;;;;;5164362;27;20035;-46
2020/12/20 08:32:21;;;;;;;229.18;32.50;;;4.70;86.20;;;;;;5144846;27;20352;-45
2020/12/20 08:34:47;;;;;;;121.03;29.27;;;4.70;86.20;;;;;;5141014;27;20118;-42
2020/12/20 08:37:15;;;;;;;226.63;36.17;;;4.70;86.20;;;;;;5158718;27;20018;-43
2020/12/20 08:39:42;;;;;;;203.73;27.10;;;4.80;86.20;;;;;;5157259;27;20323;-41
2020/12/20 08:42:13;;;;;;;105.18;25.88;;;4.80;85.70;;;;;;5158738;27;20352;-41
2020/12/20 08:44:40;;;;;;;124.25;31.25;;;4.80;85.50;;;;;;5150608;27;20465;-41
2020/12/20 08:47:16;;;;;;;62.38;25.90;;;4.80;85.50;;;;;;5152242;27;20027;-40
2020/12/20 08:49:57;;;;;;;73.18;28.40;;;4.80;85.60;;;;;;5158084;27;20063;-39
2020/12/20 08:52:25;;;;;;;47.60;22.40;;;4.90;85.70;;;;;;5157887;27;20021;-40
2020/12/20 08:54:52;;;;;;;57.20;24.08;;;4.90;85.90;;;;;;5159971;27;20043;-41
2020/12/20 08:57:23;;;;;;;57.35;23.30;;;4.90;85.80;;;;;;5147230;27;20473;-40
2020/12/20 08:59:49;;;;;;;94.90;26.85;;;5.00;85.80;;;;;;5149095;27;20027;-43
2020/12/20 09:02:23;;;;;;;52.25;24.67;;;5.00;85.80;;;;;;5159025;27;20023;-44
2020/12/20 09:04:56;;;;;;;56.85;28.25;;;5.10;85.70;;;;;;5158789;27;20038;-44
2020/12/20 09:07:48;;;;;;;132.82;25.85;;;5.10;85.50;;;;;;5159059;27;20448;-44
2020/12/20 09:10:35;;;;;;;71.07;21.92;;;5.10;85.00;;;;;;5155080;27;20038;-43
2020/12/20 09:13:06;;;;;;;123.30;28.55;;;5.10;84.80;;;;;;5159283;27;20029;-44
2020/12/20 09:15:39;;;;;;;148.25;27.33;;;5.10;84.90;;;;;;5159979;27;20034;-43
2020/12/20 09:18:21;;;;;;;213.50;28.73;;;5.10;84.90;;;;;;5159398;27;20046;-44
2020/12/20 09:20:47;;;;;;;137.50;26.83;;;5.10;84.50;;;;;;5158703;27;20054;-42
2020/12/20 09:23:24;;;;;;;187.25;29.50;;;5.10;84.50;;;;;;5157400;27;20514;-43
2020/12/20 09:25:59;;;;;;;142.52;26.30;;;5.10;84.60;;;;;;5157099;27;20114;-44
2020/12/20 09:28:26;;;;;;;123.47;25.27;;;5.10;84.60;;;;;;5147176;27;20035;-44
2020/12/20 09:30:54;;;;;;;69.72;22.63;;;5.00;84.50;;;;;;5158780;27;20373;-42
2020/12/20 09:33:24;;;;;;;87.95;25.60;;;5.10;85.30;;;;;;5157433;27;20025;-42
2020/12/20 09:35:51;;;;;;;61.83;23.75;;;5.10;84.80;;;;;;5159180;27;20026;-41
2020/12/20 09:38:17;;;;;;;78.93;25.48;;;5.10;84.90;;;;;;5158252;27;20424;-41
2020/12/20 09:40:43;;;;;;;45.58;20.70;;;5.10;84.80;;;;;;5159444;27;20039;-42
2020/12/20 09:43:08;;;;;;;105.40;24.77;;;5.20;84.60;;;;;;5157750;27;20364;-42
2020/12/20 09:45:34;;;;;;;41.50;18.17;;;5.20;84.40;;;;;;5151823;27;20023;-41
2020/12/20 09:48:00;;;;;;;97.88;25.35;;;5.20;84.40;;;;;;5136406;27;20019;-42
2020/12/20 09:50:25;;;;;;;56.42;26.10;;;5.20;84.50;;;;;;5136678;27;20035;-41
2020/12/20 09:52:51;;;;;;;107.72;23.83;;;5.20;84.60;;;;;;5136015;27;20371;-43
2020/12/20 09:55:17;;;;;;;78.03;22.95;;;5.20;84.50;;;;;;5136663;27;20027;-44
2020/12/20 09:57:42;;;;;;;94.50;25.38;;;5.30;84.50;;;;;;5136455;27;20037;-45
2020/12/20 10:00:08;;;;;;;117.32;24.00;;;5.20;84.40;;;;;;5138012;27;20092;-41
2020/12/20 10:02:34;;;;;;;110.38;23.10;;;5.30;84.30;;;;;;5137261;27;20441;-43
2020/12/20 10:04:59;;;;;;;67.95;24.77;;;5.20;84.00;;;;;;5138441;27;20031;-42
2020/12/20 10:07:25;;;;;;;107.75;26.17;;;5.20;83.90;;;;;;5137732;27;20023;-42
2020/12/20 10:09:51;;;;;;;69.20;24.95;;;5.30;83.90;;;;;;5120052;27;20033;-42
2020/12/20 10:12:16;;;;;;;74.50;25.08;;;5.20;83.90;;;;;;5136070;27;20019;-42
2020/12/20 10:14:43;;;;;;;63.10;25.52;;;5.30;83.80;;;;;;5141182;27;20323;-41
2020/12/20 10:17:09;;;;;;;46.50;23.88;;;5.30;83.50;;;;;;5143356;27;20046;-42
2020/12/20 10:19:34;;;;;;;56.40;25.75;;;5.30;83.30;;;;;;5135573;27;20057;-41
2020/12/20 10:22:00;;;;;;;62.63;28.08;;;5.30;83.30;;;;;;5136152;27;20027;-41
2020/12/20 10:24:25;;;;;;;41.38;20.50;;;5.20;83.10;;;;;;5136729;27;20314;-41
2020/12/20 10:26:51;;;;;;;53.30;25.52;;;5.20;82.80;;;;;;5153577;27;20336;-45
2020/12/20 10:29:18;;;;;;;54.58;26.23;;;5.20;82.80;;;;;;5136254;27;20023;-44
2020/12/20 10:31:45;;;;;;;40.63;21.58;;;5.20;82.90;;;;;;5137130;27;20436;-45
2020/12/20 10:34:11;;;;;;;41.55;22.35;;;5.10;83.10;;;;;;5155479;27;20148;-43
2020/12/20 10:36:38;;;;;;;40.97;22.92;;;5.10;83.30;;;;;;5158538;27;20066;-45
2020/12/20 10:39:06;;;;;;;35.97;18.63;;;5.20;83.50;;;;;;5157058;27;20025;-44
2020/12/20 10:41:39;;;;;;;44.80;25.80;;;5.20;83.70;;;;;;5156839;27;20122;-44
2020/12/20 10:44:06;;;;;;;37.60;21.85;;;5.20;83.60;;;;;;5156466;27;20105;-45
2020/12/20 10:46:35;;;;;;;32.70;20.10;;;5.30;83.90;;;;;;5156996;27;20038;-44
2020/12/20 10:49:02;;;;;;;53.80;34.58;;;5.30;84.00;;;;;;5155507;27;20018;-45
2020/12/20 10:51:28;;;;;;;27.35;16.60;;;5.30;83.80;;;;;;5157195;27;20041;-44
2020/12/20 10:53:54;;;;;;;25.35;16.20;;;5.40;83.70;;;;;;5155706;27;20022;-44
2020/12/20 10:56:20;;;;;;;26.25;16.60;;;5.40;83.60;;;;;;5155952;27;20053;-44
2020/12/20 10:58:49;;;;;;;28.35;18.08;;;5.40;83.20;;;;;;5155109;27;20038;-46
2020/12/20 11:01:19;;;;;;;27.17;15.23;;;5.50;82.90;;;;;;5155783;27;20506;-43
2020/12/20 11:03:46;;;;;;;21.42;13.48;;;5.50;82.70;;;;;;5153443;27;20038;-43
2020/12/20 11:06:22;;;;;;;20.85;12.77;;;5.50;82.40;;;;;;5155152;27;20030;-46
2020/12/20 11:08:48;;;;;;;22.50;13.52;;;5.40;82.20;;;;;;5154905;27;20029;-45
2020/12/20 11:11:18;;;;;;;22.55;14.40;;;5.50;82.30;;;;;;5157239;27;20407;-43
2020/12/20 11:13:45;;;;;;;23.10;14.02;;;5.50;82.50;;;;;;5151286;27;20023;-44
2020/12/20 11:16:15;;;;;;;22.35;14.30;;;5.50;82.30;;;;;;5155813;27;20034;-45
2020/12/20 11:18:42;;;;;;;20.83;14.38;;;5.50;81.90;;;;;;5156531;27;20101;-43
2020/12/20 11:21:13;;;;;;;29.05;16.58;;;5.50;81.70;;;;;;5156609;27;20137;-44
2020/12/20 11:23:39;;;;;;;22.58;14.80;;;5.50;81.60;;;;;;5155829;27;20030;-47
2020/12/20 11:26:15;;;;;;;25.40;17.10;;;5.50;81.50;;;;;;5155873;27;20107;-46
2020/12/20 11:28:43;;;;;;;25.52;16.33;;;5.50;81.40;;;;;;5156045;27;20374;-44
2020/12/20 11:31:10;;;;;;;23.88;15.82;;;5.50;81.40;;;;;;5157399;27;20026;-46
2020/12/20 11:33:36;;;;;;;24.25;17.10;;;5.50;81.30;;;;;;5155960;27;20053;-46
2020/12/20 11:36:03;;;;;;;23.67;16.08;;;5.50;81.20;;;;;;5156806;27;20431;-45
2020/12/20 11:38:29;;;;;;;24.50;16.73;;;5.50;80.90;;;;;;5155784;27;20023;-45
2020/12/20 11:40:54;;;;;;;30.10;18.35;;;5.50;81.00;;;;;;5156642;27;20045;-47
2020/12/20 11:43:20;;;;;;;30.60;19.55;;;5.40;81.00;;;;;;5155655;27;20330;-45
2020/12/20 11:45:46;;;;;;;28.60;15.05;;;5.40;81.10;;;;;;5157051;27;20079;-45
2020/12/20 11:48:13;;;;;;;30.67;18.15;;;5.40;81.30;;;;;;5156157;27;20023;-46
2020/12/20 11:50:39;;;;;;;28.90;18.95;;;5.40;81.50;;;;;;5156845;27;20058;-45
2020/12/20 11:53:05;;;;;;;26.30;17.00;;;5.40;81.40;;;;;;5155997;27;20069;-45
2020/12/20 11:55:30;;;;;;;35.03;20.92;;;5.40;81.10;;;;;;5156517;27;20138;-44
2020/12/20 11:57:56;;;;;;;30.65;18.70;;;5.40;81.00;;;;;;5156162;27;20041;-44
2020/12/20 12:00:22;;;;;;;34.80;20.23;;;5.40;80.80;;;;;;5157298;27;20073;-44
2020/12/20 12:02:47;;;;;;;35.72;22.50;;;5.30;80.90;;;;;;5137452;27;20131;-46
2020/12/20 12:05:13;;;;;;;29.10;17.38;;;5.30;80.80;;;;;;5156564;27;20035;-45
2020/12/20 12:07:39;;;;;;;32.90;18.70;;;5.30;80.60;;;;;;5158311;27;20037;-46
2020/12/20 12:10:04;;;;;;;38.58;22.33;;;5.20;80.60;;;;;;5161288;27;20172;-44
2020/12/20 12:12:30;;;;;;;30.38;18.73;;;5.20;80.80;;;;;;5159460;27;20027;-45
2020/12/20 12:14:56;;;;;;;35.20;21.35;;;5.20;80.80;;;;;;5159962;27;20041;-45
2020/12/20 12:17:22;;;;;;;35.45;19.42;;;5.10;80.60;;;;;;5158886;27;20054;-45
2020/12/20 12:19:47;;;;;;;42.40;22.50;;;5.10;80.90;;;;;;5158573;27;20043;-44
2020/12/20 12:22:13;;;;;;;37.25;20.60;;;5.10;81.20;;;;;;5158539;27;20515;-42
2020/12/20 12:24:39;;;;;;;39.22;20.13;;;5.00;81.30;;;;;;5158830;27;20022;-42
2020/12/20 12:27:04;;;;;;;49.35;25.90;;;5.00;81.30;;;;;;5158476;27;20029;-43
2020/12/20 12:29:30;;;;;;;53.63;30.05;;;5.00;81.30;;;;;;5158735;27;20420;-42
2020/12/20 12:31:56;;;;;;;59.70;33.28;;;5.00;81.40;;;;;;5159472;27;20079;-44
2020/12/20 12:34:21;;;;;;;54.05;32.63;;;4.90;81.60;;;;;;5159700;27;20027;-43
2020/12/20 12:36:47;;;;;;;49.97;25.73;;;5.00;82.00;;;;;;5160630;27;20412;-43
2020/12/20 12:39:13;;;;;;;45.85;22.00;;;5.00;82.10;;;;;;5159901;27;20023;-43
2020/12/20 12:41:38;;;;;;;55.58;27.52;;;5.00;81.80;;;;;;5160631;27;20042;-43
2020/12/20 12:44:04;;;;;;;51.60;27.73;;;4.90;81.60;;;;;;5159143;27;20018;-42
2020/12/20 12:46:30;;;;;;;51.13;25.65;;;4.90;81.70;;;;;;5160525;27;20062;-43
2020/12/20 12:48:55;;;;;;;62.53;33.75;;;4.80;81.60;;;;;;5159746;27;20031;-46
2020/12/20 12:51:26;;;;;;;37.60;22.23;;;4.80;81.70;;;;;;5160495;27;20031;-43
2020/12/20 12:53:52;;;;;;;47.97;23.23;;;4.80;81.90;;;;;;5159158;27;20069;-43
2020/12/20 12:56:18;;;;;;;44.65;22.02;;;4.80;82.20;;;;;;5160119;27;20078;-48
2020/12/20 12:58:44;;;;;;;53.45;30.95;;;4.80;82.30;;;;;;5159492;27;20050;-45
2020/12/20 13:01:10;;;;;;;46.00;24.63;;;4.80;82.20;;;;;;5159784;27;20488;-44
2020/12/20 13:03:36;;;;;;;61.28;34.15;;;4.80;82.30;;;;;;5158981;27;20412;-44
2020/12/20 13:06:02;;;;;;;73.72;47.70;;;4.80;82.10;;;;;;5159792;27;20033;-42
2020/12/20 13:08:28;;;;;;;51.13;31.40;;;4.80;82.10;;;;;;5158417;27;20022;-44
2020/12/20 13:10:54;;;;;;;43.30;23.02;;;4.80;82.30;;;;;;5159660;27;20037;-43
2020/12/20 13:13:20;;;;;;;89.93;34.30;;;4.80;82.20;;;;;;5147071;27;20042;-45
2020/12/20 13:15:46;;;;;;;54.95;27.63;;;4.80;82.20;;;;;;5137428;27;20034;-43
2020/12/20 13:18:12;;;;;;;46.35;23.67;;;4.70;82.20;;;;;;5136389;27;20445;-43
2020/12/20 13:20:38;;;;;;;47.03;24.10;;;4.70;82.20;;;;;;5136801;27;20138;-45
2020/12/20 13:23:03;;;;;;;40.08;23.20;;;4.70;82.20;;;;;;5136809;27;20444;-42
2020/12/20 13:25:30;;;;;;;51.22;27.55;;;4.70;82.30;;;;;;5137712;27;20427;-42
2020/12/20 13:27:56;;;;;;;53.80;31.58;;;4.70;82.40;;;;;;5138042;27;20028;-43
2020/12/20 13:30:22;;;;;;;36.80;22.58;;;4.70;82.40;;;;;;5138716;27;20031;-43
2020/12/20 13:32:48;;;;;;;48.58;23.35;;;4.70;82.30;;;;;;5137437;27;20344;-44
2020/12/20 13:35:14;;;;;;;46.03;23.88;;;4.70;82.10;;;;;;5138485;27;20130;-44
2020/12/20 13:37:41;;;;;;;44.58;22.90;;;4.70;82.20;;;;;;5137517;27;20045;-44
2020/12/20 13:40:06;;;;;;;56.83;24.75;;;4.70;82.10;;;;;;5138073;27;20137;-43
2020/12/20 13:42:32;;;;;;;43.63;23.95;;;4.70;82.10;;;;;;5137200;27;20435;-45
2020/12/20 13:44:59;;;;;;;40.50;23.10;;;4.70;82.10;;;;;;5136860;27;20079;-43
2020/12/20 13:47:26;;;;;;;40.08;21.30;;;4.60;82.10;;;;;;5140346;27;20053;-45
2020/12/20 13:49:52;;;;;;;55.38;30.90;;;4.60;82.30;;;;;;5156429;27;20037;-46
2020/12/20 13:52:18;;;;;;;63.17;31.33;;;4.60;82.30;;;;;;5157799;27;20036;-45
2020/12/20 13:54:45;;;;;;;45.90;21.48;;;4.60;82.40;;;;;;5157259;27;20038;-44
2020/12/20 13:57:14;;;;;;;101.18;22.98;;;4.60;82.40;;;;;;5157087;27;20021;-45
2020/12/20 13:59:39;;;;;;;43.78;22.58;;;4.60;82.40;;;;;;5158486;27;20109;-44
2020/12/20 14:02:05;;;;;;;63.35;24.23;;;4.50;82.20;;;;;;5157100;27;20109;-44
2020/12/20 14:04:31;;;;;;;39.65;21.42;;;4.50;82.30;;;;;;5158084;27;20023;-44
2020/12/20 14:06:56;;;;;;;60.00;29.35;;;4.50;82.40;;;;;;5158318;27;20023;-45
2020/12/20 14:09:22;;;;;;;43.53;21.55;;;4.50;82.50;;;;;;5157585;27;20328;-45
2020/12/20 14:11:51;;;;;;;32.60;16.75;;;4.50;82.50;;;;;;5158755;27;20027;-45
2020/12/20 14:14:18;;;;;;;47.60;23.42;;;4.50;82.40;;;;;;5138202;27;20058;-45
2020/12/20 14:16:51;;;;;;;31.15;16.90;;;4.50;82.40;;;;;;5137115;27;20049;-45
2020/12/20 14:19:17;;;;;;;33.80;18.67;;;4.50;82.50;;;;;;5136394;27;20037;-45
2020/12/20 14:21:45;;;;;;;27.10;13.98;;;4.50;82.30;;;;;;5137224;27;20054;-44
2020/12/20 14:24:11;;;;;;;29.88;17.25;;;4.40;82.30;;;;;;5136534;27;20037;-45
2020/12/20 14:26:37;;;;;;;31.45;16.50;;;4.50;82.20;;;;;;5138021;27;20455;-44
2020/12/20 14:29:03;;;;;;;33.83;17.63;;;4.40;82.20;;;;;;5136410;27;20054;-44
2020/12/20 14:31:28;;;;;;;73.63;31.55;;;4.40;82.30;;;;;;5137179;27;20031;-44
2020/12/20 14:33:54;;;;;;;72.50;28.80;;;4.40;82.40;;;;;;5136942;27;20023;-45
2020/12/20 14:36:25;;;;;;;37.10;19.13;;;4.40;82.40;;;;;;5137305;27;20027;-45
2020/12/20 14:38:50;;;;;;;44.38;19.45;;;4.40;82.50;;;;;;5136435;27;20024;-44
2020/12/20 14:41:16;;;;;;;56.25;24.55;;;4.40;82.50;;;;;;5137166;27;20348;-42
2020/12/20 14:43:42;;;;;;;84.30;27.63;;;4.40;82.60;;;;;;5136091;27;20019;-45
2020/12/20 14:46:08;;;;;;;44.75;21.42;;;4.40;82.70;;;;;;5137473;27;20031;-46
2020/12/20 14:48:37;;;;;;;47.55;19.15;;;4.40;82.70;;;;;;5135690;27;20023;-44
2020/12/20 14:51:06;;;;;;;114.22;20.60;;;4.30;82.80;;;;;;5137048;27;20378;-44
2020/12/20 14:53:33;;;;;;;39.28;17.70;;;4.40;82.80;;;;;;5135435;27;20344;-45
2020/12/20 14:55:59;;;;;;;52.70;17.23;;;4.30;82.60;;;;;;5135293;27;20080;-45
2020/12/20 14:58:25;;;;;;;171.02;21.85;;;4.30;82.60;;;;;;5135064;27;20375;-45
2020/12/20 15:00:51;;;;;;;64.80;20.80;;;4.30;82.50;;;;;;5135831;27;20112;-44
2020/12/20 15:03:17;;;;;;;39.17;17.45;;;4.30;82.20;;;;;;5135150;27;20019;-44
2020/12/20 15:05:42;;;;;;;65.20;19.27;;;4.20;82.30;;;;;;5136600;27;20110;-46
2020/12/20 15:08:10;;;;;;;50.38;17.08;;;4.20;82.20;;;;;;5135081;27;20043;-44
2020/12/20 15:10:37;;;;;;;77.68;20.13;;;4.20;82.30;;;;;;5136490;27;20073;-44
2020/12/20 15:13:02;;;;;;;186.68;26.50;;;4.20;82.50;;;;;;5144021;27;20042;-44
2020/12/20 15:15:28;;;;;;;96.55;23.85;;;4.10;82.50;;;;;;5157827;27;20057;-44
2020/12/20 15:17:54;;;;;;;50.75;18.95;;;4.10;82.50;;;;;;5156533;27;20428;-44
2020/12/20 15:20:19;;;;;;;192.77;23.00;;;4.10;82.40;;;;;;5156930;27;20053;-44
2020/12/20 15:22:46;;;;;;;85.68;25.00;;;4.10;82.30;;;;;;5156509;27;20400;-47
2020/12/20 15:25:11;;;;;;;105.95;27.17;;;4.10;82.30;;;;;;5157348;27;20041;-43
2020/12/20 15:27:37;;;;;;;107.18;21.40;;;4.10;82.20;;;;;;5156104;27;20357;-47
2020/12/20 15:30:06;;;;;;;59.20;18.63;;;4.00;82.30;;;;;;5156893;27;20049;-43
2020/12/20 15:32:32;;;;;;;85.22;31.58;;;4.00;82.40;;;;;;5156763;27;20106;-44
2020/12/20 15:34:58;;;;;;;155.88;40.50;;;4.00;82.50;;;;;;5154511;27;20442;-45
2020/12/20 15:37:24;;;;;;;170.52;52.03;;;3.90;82.40;;;;;;5154888;27;20014;-46
2020/12/20 15:39:49;;;;;;;136.27;34.67;;;4.00;82.60;;;;;;5156653;27;20126;-45
2020/12/20 15:42:16;;;;;;;125.90;21.95;;;4.00;82.90;;;;;;5155969;27;20067;-44
2020/12/20 15:44:42;;;;;;;161.98;33.40;;;3.90;82.90;;;;;;5160801;27;20019;-44
2020/12/20 15:47:08;;;;;;;73.60;26.27;;;4.00;82.80;;;;;;5160491;27;20023;-46
2020/12/20 15:49:34;;;;;;;138.32;25.45;;;3.90;82.70;;;;;;5161110;27;20349;-45
2020/12/20 15:52:00;;;;;;;54.13;20.00;;;3.90;82.80;;;;;;5160536;27;20136;-45
2020/12/20 15:54:26;;;;;;;123.88;21.17;;;3.90;82.90;;;;;;5159304;27;20424;-44
2020/12/20 15:56:52;;;;;;;136.35;31.92;;;3.90;82.80;;;;;;5161251;27;20022;-44
2020/12/20 15:59:18;;;;;;;131.07;25.15;;;3.90;82.80;;;;;;5160374;27;20007;-45
2020/12/20 16:01:44;;;;;;;88.07;23.70;;;3.80;82.70;;;;;;5160896;27;20137;-45
2020/12/20 16:04:10;;;;;;;79.82;21.60;;;3.80;82.70;;;;;;5159954;27;20443;-43
2020/12/20 16:06:36;;;;;;;104.10;23.02;;;3.80;82.80;;;;;;5161456;27;20030;-43
2020/12/20 16:09:03;;;;;;;98.15;21.77;;;3.80;82.90;;;;;;5159695;27;20335;-43
2020/12/20 16:11:29;;;;;;;89.47;19.83;;;3.80;83.00;;;;;;5161476;27;20031;-43
2020/12/20 16:13:54;;;;;;;101.55;28.48;;;3.80;83.10;;;;;;5160284;27;20021;-43
2020/12/20 16:16:21;;;;;;;43.38;18.48;;;3.90;83.30;;;;;;5160487;27;20121;-44
2020/12/20 16:18:48;;;;;;;81.90;23.70;;;3.90;83.20;;;;;;5160456;27;20037;-41
2020/12/20 16:21:24;;;;;;;66.07;20.92;;;3.90;83.20;;;;;;5160508;27;20058;-43
2020/12/20 16:23:49;;;;;;;40.17;19.25;;;3.90;83.00;;;;;;5158368;27;20065;-43
2020/12/20 16:26:23;;;;;;;123.10;25.27;;;3.90;82.90;;;;;;5158871;27;20368;-42
2020/12/20 16:28:48;;;;;;;55.80;24.40;;;3.90;83.00;;;;;;5158377;27;20235;-42
2020/12/20 16:31:15;;;;;;;58.15;25.40;;;3.90;83.10;;;;;;5158003;27;20354;-44
2020/12/20 16:33:40;;;;;;;40.28;18.60;;;3.90;83.10;;;;;;5157555;27;20042;-42
2020/12/20 16:36:17;;;;;;;41.80;20.20;;;4.00;83.10;;;;;;5159055;27;20437;-43
2020/12/20 16:38:43;;;;;;;38.05;19.95;;;4.00;82.90;;;;;;5157833;27;20027;-42
2020/12/20 16:41:14;;;;;;;38.22;23.73;;;4.00;82.80;;;;;;5157655;27;20301;-44
2020/12/20 16:43:39;;;;;;;41.08;20.40;;;4.00;82.80;;;;;;5156827;27;20018;-43
2020/12/20 16:46:09;;;;;;;46.78;23.58;;;4.10;82.90;;;;;;5157463;27;20035;-43
2020/12/20 16:48:38;;;;;;;28.45;16.75;;;4.10;82.80;;;;;;5158547;27;20021;-42
2020/12/20 16:51:04;;;;;;;34.78;16.75;;;4.10;82.70;;;;;;5159747;27;20070;-45
2020/12/20 16:53:29;;;;;;;29.48;17.17;;;4.00;82.50;;;;;;5158277;27;20015;-43
2020/12/20 16:55:55;;;;;;;30.75;14.82;;;4.10;82.30;;;;;;5160200;27;20034;-43
2020/12/20 16:58:23;;;;;;;34.22;18.20;;;4.00;82.20;;;;;;5159686;27;20023;-45
2020/12/20 17:00:52;;;;;;;30.38;16.23;;;4.00;82.30;;;;;;5159647;27;20050;-43
2020/12/20 17:03:18;;;;;;;25.73;14.70;;;4.00;82.40;;;;;;5158423;27;20019;-46
2020/12/20 17:05:44;;;;;;;30.30;16.70;;;4.00;82.60;;;;;;5159584;27;20167;-42
2020/12/20 17:08:10;;;;;;;38.20;20.00;;;4.00;82.50;;;;;;5159366;27;20023;-43
2020/12/20 17:10:36;;;;;;;33.15;18.00;;;4.00;82.40;;;;;;5159676;27;20549;-43
2020/12/20 17:13:02;;;;;;;31.25;16.10;;;4.00;82.40;;;;;;5158970;27;20022;-43
2020/12/20 17:15:27;;;;;;;33.88;18.98;;;4.00;82.40;;;;;;5159629;27;20420;-42
2020/12/20 17:17:53;;;;;;;35.65;20.35;;;4.00;82.40;;;;;;5158795;27;20018;-42
2020/12/20 17:20:19;;;;;;;24.75;14.30;;;4.00;82.30;;;;;;5159171;27;20047;-42
2020/12/20 17:22:44;;;;;;;36.83;19.65;;;4.00;82.20;;;;;;5159029;27;20026;-45
2020/12/20 17:25:10;;;;;;;39.65;20.63;;;4.00;82.30;;;;;;5159680;27;20424;-43
2020/12/20 17:27:36;;;;;;;42.45;25.13;;;4.00;82.30;;;;;;5158917;27;20265;-43
2020/12/20 17:30:03;;;;;;;32.85;17.10;;;3.90;82.30;;;;;;5159045;27;20033;-42
2020/12/20 17:32:30;;;;;;;30.08;16.25;;;3.90;82.30;;;;;;5159085;27;20045;-43
2020/12/20 17:34:56;;;;;;;33.88;16.58;;;3.90;82.30;;;;;;5159558;27;20037;-42
2020/12/20 17:37:21;;;;;;;29.65;15.63;;;3.90;82.20;;;;;;5158663;27;20075;-44
2020/12/20 17:39:47;;;;;;;29.45;17.52;;;3.90;82.20;;;;;;5159089;27;20050;-43
2020/12/20 17:42:13;;;;;;;28.52;17.40;;;3.90;82.20;;;;;;5158119;27;20289;-43
2020/12/20 17:44:39;;;;;;;55.20;32.50;;;3.90;82.20;;;;;;5159044;27;20018;-45
2020/12/20 17:47:04;;;;;;;40.42;24.05;;;3.90;82.10;;;;;;5158596;27;20061;-43
2020/12/20 17:49:30;;;;;;;26.42;15.32;;;3.90;82.30;;;;;;5158668;27;20019;-44
2020/12/20 17:51:56;;;;;;;30.58;17.63;;;3.90;82.40;;;;;;5157948;27;20431;-47
2020/12/20 17:54:22;;;;;;;29.20;15.98;;;3.90;82.40;;;;;;5158143;27;20029;-45
2020/12/20 17:56:48;;;;;;;35.40;18.70;;;4.00;82.50;;;;;;5158732;27;20439;-45
2020/12/20 17:59:14;;;;;;;27.10;15.23;;;4.00;82.50;;;;;;5158249;27;20014;-44
2020/12/20 18:01:39;;;;;;;32.85;16.55;;;4.00;82.50;;;;;;5158853;27;20073;-42
2020/12/20 18:04:05;;;;;;;28.38;16.48;;;4.00;82.40;;;;;;5157253;27;20473;-43
2020/12/20 18:06:31;;;;;;;28.50;15.60;;;4.00;82.40;;;;;;5157701;27;20027;-44
2020/12/20 18:08:57;;;;;;;27.02;15.82;;;4.10;82.50;;;;;;5157641;27;20309;-43
2020/12/20 18:11:33;;;;;;;43.10;23.90;;;4.10;82.50;;;;;;5159113;27;20051;-44
2020/12/20 18:13:59;;;;;;;30.08;17.95;;;4.10;82.50;;;;;;5157563;27;20029;-42
2020/12/20 18:16:25;;;;;;;36.55;18.10;;;4.20;82.50;;;;;;5159032;27;20324;-46
2020/12/20 18:18:51;;;;;;;30.83;18.38;;;4.20;82.30;;;;;;5157395;27;20023;-43
2020/12/20 18:21:19;;;;;;;44.45;25.45;;;4.20;82.20;;;;;;5156348;27;20049;-43
2020/12/20 18:23:46;;;;;;;40.03;24.85;;;4.20;82.10;;;;;;5155527;27;20114;-45
2020/12/20 18:26:12;;;;;;;53.50;28.35;;;4.20;82.10;;;;;;5117855;27;20019;-46
2020/12/20 18:28:37;;;;;;;37.15;21.98;;;4.20;82.00;;;;;;5135883;27;20023;-43
2020/12/20 18:31:04;;;;;;;41.90;22.38;;;4.20;81.90;;;;;;5136086;27;20421;-43
2020/12/20 18:33:31;;;;;;;37.83;20.63;;;4.20;82.00;;;;;;5135592;27;20425;-42
2020/12/20 18:36:00;;;;;;;54.15;28.02;;;4.20;82.00;;;;;;5117679;27;20452;-43
2020/12/20 18:38:27;;;;;;;44.58;22.85;;;4.20;81.80;;;;;;5136414;27;20023;-42
2020/12/20 18:40:54;;;;;;;48.75;26.35;;;4.20;81.80;;;;;;5147686;27;20046;-44
2020/12/20 18:43:21;;;;;;;50.90;26.67;;;4.20;81.80;;;;;;5157204;27;20019;-43
2020/12/20 18:45:47;;;;;;;55.78;26.95;;;4.20;81.80;;;;;;5158000;27;20069;-44
2020/12/20 18:48:13;;;;;;;53.42;27.30;;;4.20;81.70;;;;;;5157309;27;20046;-43
2020/12/20 18:50:38;;;;;;;49.47;24.05;;;4.20;81.70;;;;;;5157768;27;20031;-42
2020/12/20 18:53:04;;;;;;;52.95;29.10;;;4.20;81.70;;;;;;5157616;27;20026;-45
2020/12/20 18:55:30;;;;;;;34.65;19.17;;;4.20;81.80;;;;;;5158191;27;20052;-43
2020/12/20 18:57:56;;;;;;;40.22;21.73;;;4.20;81.70;;;;;;5147731;27;20065;-43
2020/12/20 19:00:22;;;;;;;40.15;23.63;;;4.20;81.80;;;;;;5146146;27;20401;-44
2020/12/20 19:02:48;;;;;;;45.80;23.73;;;4.20;82.00;;;;;;5144287;27;20050;-44
2020/12/20 19:05:15;;;;;;;50.08;24.33;;;4.20;81.90;;;;;;5142612;27;20027;-43
2020/12/20 19:07:40;;;;;;;52.13;25.60;;;4.20;81.90;;;;;;5145080;27;20098;-43
2020/12/20 19:10:07;;;;;;;87.60;42.25;;;4.20;81.90;;;;;;5147048;27;20123;-42
2020/12/20 19:12:34;;;;;;;64.55;30.35;;;4.20;81.70;;;;;;5156986;27;20097;-42
2020/12/20 19:15:00;;;;;;;41.45;21.05;;;4.20;81.70;;;;;;5157180;27;20038;-46
2020/12/20 19:17:26;;;;;;;71.75;32.92;;;4.20;81.60;;;;;;5153139;27;20090;-45
2020/12/20 19:19:53;;;;;;;62.78;28.70;;;4.20;81.50;;;;;;5156756;27;20046;-44
2020/12/20 19:22:19;;;;;;;46.25;25.15;;;4.20;81.50;;;;;;5156303;27;20621;-42
2020/12/20 19:24:45;;;;;;;43.03;21.95;;;4.20;81.70;;;;;;5157151;27;20026;-42
2020/12/20 19:27:10;;;;;;;39.83;19.98;;;4.20;81.80;;;;;;5157148;27;20128;-45
2020/12/20 19:29:37;;;;;;;33.28;18.65;;;4.20;81.70;;;;;;5156996;27;20027;-44
2020/12/20 19:32:03;;;;;;;50.80;25.77;;;4.20;81.60;;;;;;5157285;27;20027;-43
2020/12/20 19:34:28;;;;;;;46.00;22.10;;;4.20;81.60;;;;;;5156814;27;20019;-42
2020/12/20 19:36:54;;;;;;;48.20;23.15;;;4.20;81.60;;;;;;5157079;27;20019;-45
2020/12/20 19:39:21;;;;;;;36.50;19.08;;;4.20;81.60;;;;;;5156721;27;20331;-44
2020/12/20 19:41:47;;;;;;;49.05;24.25;;;4.20;81.70;;;;;;5157690;27;20095;-43
2020/12/20 19:44:13;;;;;;;44.65;22.05;;;4.20;81.60;;;;;;5156077;27;20109;-43
2020/12/20 19:46:39;;;;;;;48.17;23.98;;;4.20;81.40;;;;;;5157921;27;20023;-43
2020/12/20 19:49:06;;;;;;;41.50;22.75;;;4.20;81.40;;;;;;5156874;27;20018;-43
2020/12/20 19:51:34;;;;;;;49.08;24.83;;;4.20;81.40;;;;;;5156687;27;20018;-42
2020/12/20 19:54:08;;;;;;;33.22;19.80;;;4.20;81.30;;;;;;5155944;27;20048;-43
2020/12/20 19:56:34;;;;;;;35.92;21.33;;;4.20;81.30;;;;;;5157805;27;20027;-44